Amherst, OH

2:08 AM EDT on April 21, 2015 (GMT -0400)
Amherst Township | | Change Station
CLOSE
Current Station
Personal Weather Station
Location: Amherst, OH
Elevation: 725 ft
Nearby Weather Stations

Elev 725 ft 41.40 °N, 82.21 °W | Updated 3 seconds ago

Overcast
Overcast
46.4 °F
Feels Like 43 °F
N
6.0
Wind Variable Wind from WSW
Gusts 14.0 mph

Today
High -- | Low -- °F
--% Chance of Precip.
Yesterday
High -- | Low -- °F
Precip. -- in
6:40 AM 8:15 PM
Waxing Crescent, 8% visible
Pressure 29.66 in
Visibility 10.0 miles
Clouds Few 4600 ft
Mostly Cloudy 6000 ft
Windchill 43 °F
Dew Point 31 °F
Humidity 54%
Rainfall 0.00 in
Snow Depth Not available.
UV 0 out of 12
Pollen 8.50 out of 12
Air Quality Not available.
Flu Activity Regional
METAR KLPR 210553Z AUTO 26012G23KT 10SM FEW046 BKN060 07/01 A2966 RMK AO2 PK WND 26026/0526 SLP043 60000 T00720011 10111 20072 53008 TSNO $

More Conditions Fewer Conditions

Pressure 29.66 in
Visibility 10.0 miles
Clouds Few 4600 ft
Mostly Cloudy 6000 ft
Windchill 43 °F
Dew Point 31 °F
Humidity 54%
Rainfall 0.00 in
Snow Depth Not available.
UV 0 out of 12
Pollen 8.50 out of 12
Air Quality Not available.
Flu Activity Regional
METAR KLPR 210553Z AUTO 26012G23KT 10SM FEW046 BKN060 07/01 A2966 RMK AO2 PK WND 26026/0526 SLP043 60000 T00720011 10111 20072 53008 TSNO $

More Conditions Fewer Conditions

10-Day Weather Forecast

Almanac

Astronomy

Apr. 21, 2015 Rise Set
Actual Time
Civil Twilight
Nautical Twilight
Astronomical Twilight
Moon
Length of Visible Light
Length of Day
Tomorrow will be .
, % of the Moon is Illuminated

Today's Extremes

State Highs State Lows

Community

WunderPhotos

Upload Photos

1,815,318 photos uploaded!

WunderBlogs® & News

Nearby

Air Quality

  Air Quality AQ Index Pollutant
Not available.

Snow Depth

Station Depth Elevation

Earthquake Activity

City Distance Mag. Time & Date
Minimum magnitude displayed is 2.5.

Coastal Water Temperatures

Place Temperature

Stations

Nearby Weather Stations

Station Location Temp. Windchill Dew Point Humidity Wind Precip. Elev Updated Type